Terminal Aerodrome Forecast
Issued by NWS Twin Cities, MN

Home | Current Version | Previous Version | Text Only | Print | Product List | Glossary Off
Versions: 1 2 3 4 5 6 7 8 9 10 11 12 13 14 15 16 17 18 19 20 21 22 23 24 25 26 27 28 29

000
FTUS43 KMPX 022336
TAFMSP
TAF
KMSP 022336Z 0300/0406 18008KT P6SM FEW080
     FM031100 17007KT P6SM VCSH SCT050 BKN090
     FM031800 22008KT P6SM SCT035 BKN050
     FM032100 31009KT P6SM -SHRA OVC040 PROB30 0321/0324 5SM TSRA
      OVC035CB
     FM040200 34012KT P6SM VCSH BKN050=

USA.gov is the U.S. government's official web portal to all federal, state and local government web resources and services.